sensor_id;sensor_type;location;lat;lon;timestamp;pressure;altitude;pressure_sealevel;temperature;humidity
18988;BME280;5494;51.796;10.952;2024-02-26T00:00:49;97661.03;;;2.54;100.00
18988;BME280;5494;51.796;10.952;2024-02-26T00:03:17;97664.41;;;2.56;100.00
18988;BME280;5494;51.796;10.952;2024-02-26T00:05:45;97660.22;;;2.53;100.00
18988;BME280;5494;51.796;10.952;2024-02-26T00:08:14;97671.34;;;2.52;100.00
18988;BME280;5494;51.796;10.952;2024-02-26T00:10:42;97668.91;;;2.49;100.00
18988;BME280;5494;51.796;10.952;2024-02-26T00:13:10;97665.53;;;2.49;100.00
18988;BME280;5494;51.796;10.952;2024-02-26T00:15:38;97662.34;;;2.42;100.00
18988;BME280;5494;51.796;10.952;2024-02-26T00:18:08;97656.41;;;2.42;100.00
18988;BME280;5494;51.796;10.952;2024-02-26T00:20:36;97652.19;;;2.41;100.00
18988;BME280;5494;51.796;10.952;2024-02-26T00:23:05;97651.38;;;2.38;100.00
18988;BME280;5494;51.796;10.952;2024-02-26T00:25:33;97648.00;;;2.38;100.00
18988;BME280;5494;51.796;10.952;2024-02-26T00:28:03;97645.72;;;2.30;100.00
18988;BME280;5494;51.796;10.952;2024-02-26T00:30:31;97639.75;;;2.30;100.00
18988;BME280;5494;51.796;10.952;2024-02-26T00:32:59;97647.59;;;2.27;100.00
18988;BME280;5494;51.796;10.952;2024-02-26T00:35:28;97651.16;;;2.23;100.00
18988;BME280;5494;51.796;10.952;2024-02-26T00:37:56;97654.00;;;2.15;100.00
18988;BME280;5494;51.796;10.952;2024-02-26T00:40:25;97649.72;;;2.16;100.00
18988;BME280;5494;51.796;10.952;2024-02-26T00:42:54;97647.09;;;2.17;100.00
18988;BME280;5494;51.796;10.952;2024-02-26T00:45:22;97641.31;;;2.12;100.00
18988;BME280;5494;51.796;10.952;2024-02-26T00:47:50;97644.00;;;2.09;100.00
18988;BME280;5494;51.796;10.952;2024-02-26T00:50:18;97645.91;;;2.04;100.00
18988;BME280;5494;51.796;10.952;2024-02-26T00:52:47;97643.69;;;1.95;100.00
18988;BME280;5494;51.796;10.952;2024-02-26T00:55:15;97640.88;;;2.01;100.00
18988;BME280;5494;51.796;10.952;2024-02-26T00:57:43;97634.13;;;2.00;100.00
18988;BME280;5494;51.796;10.952;2024-02-26T01:00:13;97635.84;;;2.00;100.00
18988;BME280;5494;51.796;10.952;2024-02-26T01:02:42;97634.31;;;1.94;100.00
18988;BME280;5494;51.796;10.952;2024-02-26T01:05:10;97630.88;;;1.95;100.00
18988;BME280;5494;51.796;10.952;2024-02-26T01:07:38;97629.44;;;1.88;100.00
18988;BME280;5494;51.796;10.952;2024-02-26T01:10:09;97626.88;;;1.88;100.00
18988;BME280;5494;51.796;10.952;2024-02-26T01:12:37;97632.06;;;1.86;100.00
18988;BME280;5494;51.796;10.952;2024-02-26T01:15:06;97636.13;;;1.92;100.00
18988;BME280;5494;51.796;10.952;2024-02-26T01:17:35;97637.06;;;1.89;100.00
18988;BME280;5494;51.796;10.952;2024-02-26T01:20:05;97633.44;;;1.95;100.00
18988;BME280;5494;51.796;10.952;2024-02-26T01:22:33;97629.88;;;1.99;100.00
18988;BME280;5494;51.796;10.952;2024-02-26T01:25:01;97630.88;;;1.95;100.00
18988;BME280;5494;51.796;10.952;2024-02-26T01:27:30;97628.31;;;1.95;100.00
18988;BME280;5494;51.796;10.952;2024-02-26T01:29:59;97632.44;;;1.99;100.00
18988;BME280;5494;51.796;10.952;2024-02-26T01:32:27;97623.03;;;2.00;100.00
18988;BME280;5494;51.796;10.952;2024-02-26T01:34:58;97622.09;;;2.01;100.00
18988;BME280;5494;51.796;10.952;2024-02-26T01:37:26;97624.66;;;2.01;100.00
18988;BME280;5494;51.796;10.952;2024-02-26T01:39:54;97629.75;;;2.02;100.00
18988;BME280;5494;51.796;10.952;2024-02-26T01:42:22;97627.91;;;2.06;100.00
18988;BME280;5494;51.796;10.952;2024-02-26T01:44:51;97618.59;;;2.03;100.00
18988;BME280;5494;51.796;10.952;2024-02-26T01:47:19;97616.94;;;2.02;100.00
18988;BME280;5494;51.796;10.952;2024-02-26T01:49:47;97621.22;;;2.02;100.00
18988;BME280;5494;51.796;10.952;2024-02-26T01:52:16;97608.41;;;2.02;100.00
18988;BME280;5494;51.796;10.952;2024-02-26T01:54:45;97615.25;;;2.01;100.00
18988;BME280;5494;51.796;10.952;2024-02-26T01:57:15;97609.28;;;2.01;100.00
18988;BME280;5494;51.796;10.952;2024-02-26T01:59:44;97607.41;;;2.06;100.00
18988;BME280;5494;51.796;10.952;2024-02-26T02:02:15;97606.53;;;2.07;100.00
18988;BME280;5494;51.796;10.952;2024-02-26T02:04:44;97614.50;;;1.99;100.00
18988;BME280;5494;51.796;10.952;2024-02-26T02:07:13;97618.78;;;1.98;100.00
18988;BME280;5494;51.796;10.952;2024-02-26T02:09:41;97608.84;;;1.91;100.00
18988;BME280;5494;51.796;10.952;2024-02-26T02:12:12;97615.56;;;1.93;100.00
18988;BME280;5494;51.796;10.952;2024-02-26T02:14:40;97618.06;;;1.95;100.00
18988;BME280;5494;51.796;10.952;2024-02-26T02:17:09;97621.50;;;1.94;100.00
18988;BME280;5494;51.796;10.952;2024-02-26T02:19:38;97622.44;;;1.93;100.00
18988;BME280;5494;51.796;10.952;2024-02-26T02:22:08;97623.41;;;1.89;100.00
18988;BME280;5494;51.796;10.952;2024-02-26T02:24:36;97625.16;;;1.88;100.00
18988;BME280;5494;51.796;10.952;2024-02-26T02:27:04;97621.81;;;1.86;100.00
18988;BME280;5494;51.796;10.952;2024-02-26T02:29:33;97628.00;;;1.81;100.00
18988;BME280;5494;51.796;10.952;2024-02-26T02:32:03;97621.38;;;1.75;100.00
18988;BME280;5494;51.796;10.952;2024-02-26T02:34:32;97627.63;;;1.68;100.00
18988;BME280;5494;51.796;10.952;2024-02-26T02:37:01;97622.44;;;1.70;100.00
18988;BME280;5494;51.796;10.952;2024-02-26T02:39:30;97619.88;;;1.70;100.00
18988;BME280;5494;51.796;10.952;2024-02-26T02:41:58;97624.91;;;1.73;100.00
18988;BME280;5494;51.796;10.952;2024-02-26T02:44:26;97625.78;;;1.72;100.00
18988;BME280;5494;51.796;10.952;2024-02-26T02:46:54;97623.94;;;1.75;100.00
18988;BME280;5494;51.796;10.952;2024-02-26T02:49:22;97629.00;;;1.77;100.00
18988;BME280;5494;51.796;10.952;2024-02-26T02:51:50;97623.06;;;1.76;100.00
18988;BME280;5494;51.796;10.952;2024-02-26T02:54:20;97628.22;;;1.75;100.00
18988;BME280;5494;51.796;10.952;2024-02-26T02:56:49;97642.75;;;1.74;100.00
18988;BME280;5494;51.796;10.952;2024-02-26T02:59:18;97644.34;;;1.78;100.00
18988;BME280;5494;51.796;10.952;2024-02-26T03:01:46;97648.63;;;1.78;100.00
18988;BME280;5494;51.796;10.952;2024-02-26T03:04:14;97645.16;;;1.79;100.00
18988;BME280;5494;51.796;10.952;2024-02-26T03:06:42;97645.03;;;1.82;100.00
18988;BME280;5494;51.796;10.952;2024-02-26T03:09:10;97640.88;;;1.79;100.00
18988;BME280;5494;51.796;10.952;2024-02-26T03:11:38;97647.88;;;1.74;100.00
18988;BME280;5494;51.796;10.952;2024-02-26T03:14:08;97640.31;;;1.71;100.00
18988;BME280;5494;51.796;10.952;2024-02-26T03:16:36;97647.97;;;1.73;100.00
18988;BME280;5494;51.796;10.952;2024-02-26T03:19:04;97644.56;;;1.72;100.00
18988;BME280;5494;51.796;10.952;2024-02-26T03:21:33;97656.75;;;1.66;100.00
18988;BME280;5494;51.796;10.952;2024-02-26T03:24:00;97651.63;;;1.66;100.00
18988;BME280;5494;51.796;10.952;2024-02-26T03:26:29;97660.34;;;1.60;100.00
18988;BME280;5494;51.796;10.952;2024-02-26T03:28:58;97654.38;;;1.59;100.00
18988;BME280;5494;51.796;10.952;2024-02-26T03:31:27;97656.06;;;1.61;100.00
18988;BME280;5494;51.796;10.952;2024-02-26T03:33:55;97645.72;;;1.64;100.00
18988;BME280;5494;51.796;10.952;2024-02-26T03:36:23;97651.69;;;1.64;100.00
18988;BME280;5494;51.796;10.952;2024-02-26T03:38:51;97649.19;;;1.63;100.00
18988;BME280;5494;51.796;10.952;2024-02-26T03:41:19;97653.19;;;1.70;100.00
18988;BME280;5494;51.796;10.952;2024-02-26T03:43:47;97652.00;;;1.78;100.00
18988;BME280;5494;51.796;10.952;2024-02-26T03:46:15;97650.28;;;1.79;100.00
18988;BME280;5494;51.796;10.952;2024-02-26T03:48:45;97651.13;;;1.79;100.00
18988;BME280;5494;51.796;10.952;2024-02-26T03:51:13;97643.59;;;1.75;100.00
18988;BME280;5494;51.796;10.952;2024-02-26T03:53:41;97653.13;;;1.71;100.00
18988;BME280;5494;51.796;10.952;2024-02-26T03:56:11;97648.09;;;1.68;100.00
18988;BME280;5494;51.796;10.952;2024-02-26T03:58:40;97652.34;;;1.69;100.00
18988;BME280;5494;51.796;10.952;2024-02-26T04:01:09;97654.13;;;1.67;100.00
18988;BME280;5494;51.796;10.952;2024-02-26T04:03:37;97651.78;;;1.61;100.00
18988;BME280;5494;51.796;10.952;2024-02-26T04:06:09;97664.59;;;1.61;100.00
18988;BME280;5494;51.796;10.952;2024-02-26T04:08:37;97663.81;;;1.59;100.00
18988;BME280;5494;51.796;10.952;2024-02-26T04:11:05;97660.53;;;1.55;100.00
18988;BME280;5494;51.796;10.952;2024-02-26T04:13:34;97663.09;;;1.55;100.00
18988;BME280;5494;51.796;10.952;2024-02-26T04:16:05;97658.81;;;1.56;100.00
18988;BME280;5494;51.796;10.952;2024-02-26T04:18:33;97656.06;;;1.61;100.00
18988;BME280;5494;51.796;10.952;2024-02-26T04:21:02;97666.22;;;1.64;100.00
18988;BME280;5494;51.796;10.952;2024-02-26T04:23:35;97667.88;;;1.65;100.00
18988;BME280;5494;51.796;10.952;2024-02-26T04:26:04;97663.75;;;1.61;100.00
18988;BME280;5494;51.796;10.952;2024-02-26T04:28:32;97662.03;;;1.61;100.00
18988;BME280;5494;51.796;10.952;2024-02-26T04:31:00;97669.00;;;1.57;100.00
18988;BME280;5494;51.796;10.952;2024-02-26T04:33:28;97673.34;;;1.55;100.00
18988;BME280;5494;51.796;10.952;2024-02-26T04:35:56;97675.09;;;1.53;100.00
18988;BME280;5494;51.796;10.952;2024-02-26T04:38:24;97676.78;;;1.54;100.00
18988;BME280;5494;51.796;10.952;2024-02-26T04:40:54;97675.09;;;1.53;100.00
18988;BME280;5494;51.796;10.952;2024-02-26T04:43:22;97680.00;;;1.59;100.00
18988;BME280;5494;51.796;10.952;2024-02-26T04:45:50;97683.34;;;1.62;100.00
18988;BME280;5494;51.796;10.952;2024-02-26T04:48:19;97688.19;;;1.69;100.00
18988;BME280;5494;51.796;10.952;2024-02-26T04:50:47;97677.78;;;1.74;100.00
18988;BME280;5494;51.796;10.952;2024-02-26T04:53:15;97680.94;;;1.80;100.00
18988;BME280;5494;51.796;10.952;2024-02-26T04:55:44;97686.63;;;1.88;100.00
18988;BME280;5494;51.796;10.952;2024-02-26T04:58:13;97688.31;;;1.89;100.00
18988;BME280;5494;51.796;10.952;2024-02-26T05:00:41;97678.06;;;1.89;100.00
18988;BME280;5494;51.796;10.952;2024-02-26T05:03:10;97678.56;;;1.99;100.00
18988;BME280;5494;51.796;10.952;2024-02-26T05:05:40;97681.88;;;2.01;100.00
18988;BME280;5494;51.796;10.952;2024-02-26T05:08:08;97684.34;;;2.04;100.00
18988;BME280;5494;51.796;10.952;2024-02-26T05:10:37;97683.13;;;2.14;100.00
18988;BME280;5494;51.796;10.952;2024-02-26T05:13:07;97679.53;;;2.18;100.00
18988;BME280;5494;51.796;10.952;2024-02-26T05:15:37;97678.59;;;2.21;100.00
18988;BME280;5494;51.796;10.952;2024-02-26T05:18:05;97680.22;;;2.22;100.00
18988;BME280;5494;51.796;10.952;2024-02-26T05:20:34;97679.34;;;2.23;100.00
18988;BME280;5494;51.796;10.952;2024-02-26T05:23:04;97680.03;;;2.28;100.00
18988;BME280;5494;51.796;10.952;2024-02-26T05:25:32;97687.63;;;2.29;100.00
18988;BME280;5494;51.796;10.952;2024-02-26T05:28:00;97689.19;;;2.33;100.00
18988;BME280;5494;51.796;10.952;2024-02-26T05:30:28;97688.13;;;2.39;100.00
18988;BME280;5494;51.796;10.952;2024-02-26T05:32:58;97689.66;;;2.43;100.00
18988;BME280;5494;51.796;10.952;2024-02-26T05:35:26;97691.03;;;2.52;100.00
18988;BME280;5494;51.796;10.952;2024-02-26T05:37:54;97693.50;;;2.55;100.00
18988;BME280;5494;51.796;10.952;2024-02-26T05:40:22;97689.13;;;2.57;100.00
18988;BME280;5494;51.796;10.952;2024-02-26T05:42:50;97691.44;;;2.63;100.00
18988;BME280;5494;51.796;10.952;2024-02-26T05:45:18;97694.53;;;2.71;100.00
18988;BME280;5494;51.796;10.952;2024-02-26T05:47:47;97692.88;;;2.70;100.00
18988;BME280;5494;51.796;10.952;2024-02-26T05:50:18;97689.41;;;2.71;100.00
18988;BME280;5494;51.796;10.952;2024-02-26T05:52:46;97689.28;;;2.74;100.00
18988;BME280;5494;51.796;10.952;2024-02-26T05:55:14;97701.22;;;2.75;100.00
18988;BME280;5494;51.796;10.952;2024-02-26T05:57:42;97703.84;;;2.73;100.00
18988;BME280;5494;51.796;10.952;2024-02-26T06:00:11;97696.69;;;2.82;100.00
18988;BME280;5494;51.796;10.952;2024-02-26T06:02:41;97704.19;;;2.86;100.00
18988;BME280;5494;51.796;10.952;2024-02-26T06:05:10;97710.09;;;2.88;100.00
18988;BME280;5494;51.796;10.952;2024-02-26T06:07:39;97711.00;;;2.87;100.00
18988;BME280;5494;51.796;10.952;2024-02-26T06:10:08;97709.25;;;2.88;100.00
18988;BME280;5494;51.796;10.952;2024-02-26T06:12:36;97715.88;;;2.93;100.00
18988;BME280;5494;51.796;10.952;2024-02-26T06:15:04;97716.00;;;2.90;100.00
18988;BME280;5494;51.796;10.952;2024-02-26T06:17:33;97721.78;;;2.95;100.00
18988;BME280;5494;51.796;10.952;2024-02-26T06:20:01;97721.59;;;3.00;100.00
18988;BME280;5494;51.796;10.952;2024-02-26T06:22:31;97734.22;;;3.04;100.00
18988;BME280;5494;51.796;10.952;2024-02-26T06:25:01;97739.50;;;3.01;100.00
18988;BME280;5494;51.796;10.952;2024-02-26T06:27:29;97741.94;;;3.04;100.00
18988;BME280;5494;51.796;10.952;2024-02-26T06:29:57;97749.41;;;3.10;100.00
18988;BME280;5494;51.796;10.952;2024-02-26T06:32:25;97747.72;;;3.09;100.00
18988;BME280;5494;51.796;10.952;2024-02-26T06:34:55;97755.38;;;3.11;100.00
18988;BME280;5494;51.796;10.952;2024-02-26T06:37:23;97762.09;;;3.13;100.00
18988;BME280;5494;51.796;10.952;2024-02-26T06:39:52;97764.56;;;3.16;100.00
18988;BME280;5494;51.796;10.952;2024-02-26T06:42:21;97775.72;;;3.15;100.00
18988;BME280;5494;51.796;10.952;2024-02-26T06:44:49;97775.56;;;3.18;100.00
18988;BME280;5494;51.796;10.952;2024-02-26T06:47:18;97771.13;;;3.24;100.00
18988;BME280;5494;51.796;10.952;2024-02-26T06:49:46;97775.22;;;3.28;100.00
18988;BME280;5494;51.796;10.952;2024-02-26T06:52:14;97771.63;;;3.32;100.00
18988;BME280;5494;51.796;10.952;2024-02-26T06:54:42;97775.69;;;3.37;100.00
18988;BME280;5494;51.796;10.952;2024-02-26T06:57:12;97771.19;;;3.42;100.00
18988;BME280;5494;51.796;10.952;2024-02-26T06:59:41;97787.28;;;3.46;100.00
18988;BME280;5494;51.796;10.952;2024-02-26T07:02:13;97786.34;;;3.48;100.00
18988;BME280;5494;51.796;10.952;2024-02-26T07:04:43;97789.53;;;3.53;100.00
18988;BME280;5494;51.796;10.952;2024-02-26T07:07:11;97794.75;;;3.52;100.00
18988;BME280;5494;51.796;10.952;2024-02-26T07:09:42;97796.09;;;3.61;100.00
18988;BME280;5494;51.796;10.952;2024-02-26T07:12:10;97797.50;;;3.68;100.00
18988;BME280;5494;51.796;10.952;2024-02-26T07:14:38;97800.66;;;3.74;100.00
18988;BME280;5494;51.796;10.952;2024-02-26T07:17:10;97806.06;;;3.68;100.00
18988;BME280;5494;51.796;10.952;2024-02-26T07:19:38;97804.16;;;3.73;100.00
18988;BME280;5494;51.796;10.952;2024-02-26T07:22:07;97807.53;;;3.74;100.00
18988;BME280;5494;51.796;10.952;2024-02-26T07:24:35;97807.59;;;3.92;100.00
18988;BME280;5494;51.796;10.952;2024-02-26T07:27:04;97807.84;;;3.86;100.00
18988;BME280;5494;51.796;10.952;2024-02-26T07:29:32;97806.50;;;3.98;100.00
18988;BME280;5494;51.796;10.952;2024-02-26T07:32:00;97804.38;;;4.08;100.00
18988;BME280;5494;51.796;10.952;2024-02-26T07:34:29;97806.09;;;4.07;100.00
18988;BME280;5494;51.796;10.952;2024-02-26T07:36:58;97799.91;;;4.11;100.00
18988;BME280;5494;51.796;10.952;2024-02-26T07:39:26;97805.63;;;4.18;100.00
18988;BME280;5494;51.796;10.952;2024-02-26T07:41:54;97815.13;;;4.16;100.00
18988;BME280;5494;51.796;10.952;2024-02-26T07:44:22;97821.66;;;4.23;100.00
18988;BME280;5494;51.796;10.952;2024-02-26T07:46:50;97811.00;;;4.32;100.00
18988;BME280;5494;51.796;10.952;2024-02-26T07:49:19;97817.53;;;4.39;100.00
18988;BME280;5494;51.796;10.952;2024-02-26T07:51:48;97815.44;;;4.47;100.00
18988;BME280;5494;51.796;10.952;2024-02-26T07:54:16;97805.16;;;4.28;100.00
18988;BME280;5494;51.796;10.952;2024-02-26T07:56:46;97809.16;;;4.15;100.00
18988;BME280;5494;51.796;10.952;2024-02-26T07:59:14;97804.88;;;3.95;100.00
18988;BME280;5494;51.796;10.952;2024-02-26T08:01:42;97797.16;;;3.95;100.00
18988;BME280;5494;51.796;10.952;2024-02-26T08:04:13;97791.97;;;3.97;100.00
18988;BME280;5494;51.796;10.952;2024-02-26T08:06:41;97791.13;;;3.96;100.00
18988;BME280;5494;51.796;10.952;2024-02-26T08:09:11;97803.72;;;4.03;100.00
18988;BME280;5494;51.796;10.952;2024-02-26T08:11:39;97801.66;;;4.11;100.00
18988;BME280;5494;51.796;10.952;2024-02-26T08:14:07;97808.84;;;4.42;100.00
18988;BME280;5494;51.796;10.952;2024-02-26T08:16:35;97805.22;;;4.46;100.00
18988;BME280;5494;51.796;10.952;2024-02-26T08:19:04;97804.53;;;4.61;100.00
18988;BME280;5494;51.796;10.952;2024-02-26T08:21:32;97807.94;;;4.61;100.00
18988;BME280;5494;51.796;10.952;2024-02-26T08:24:00;97819.19;;;4.78;100.00
18988;BME280;5494;51.796;10.952;2024-02-26T08:26:30;97817.06;;;4.68;100.00
18988;BME280;5494;51.796;10.952;2024-02-26T08:28:58;97810.84;;;4.72;100.00
18988;BME280;5494;51.796;10.952;2024-02-26T08:31:26;97820.56;;;4.85;100.00
18988;BME280;5494;51.796;10.952;2024-02-26T08:33:54;97821.56;;;4.82;100.00
18988;BME280;5494;51.796;10.952;2024-02-26T08:36:22;97832.06;;;4.78;100.00
18988;BME280;5494;51.796;10.952;2024-02-26T08:38:50;97829.41;;;4.79;100.00
18988;BME280;5494;51.796;10.952;2024-02-26T08:41:18;97832.81;;;4.80;100.00
18988;BME280;5494;51.796;10.952;2024-02-26T08:43:47;97832.44;;;4.70;100.00
18988;BME280;5494;51.796;10.952;2024-02-26T08:46:15;97829.50;;;4.59;100.00
18988;BME280;5494;51.796;10.952;2024-02-26T08:48:43;97828.50;;;4.43;100.00
18988;BME280;5494;51.796;10.952;2024-02-26T08:51:12;97843.06;;;4.81;100.00
18988;BME280;5494;51.796;10.952;2024-02-26T08:53:40;97847.78;;;4.90;100.00
18988;BME280;5494;51.796;10.952;2024-02-26T08:56:10;97849.53;;;4.90;100.00
18988;BME280;5494;51.796;10.952;2024-02-26T08:58:44;97841.91;;;5.05;100.00
18988;BME280;5494;51.796;10.952;2024-02-26T09:01:16;97832.84;;;5.15;100.00
18988;BME280;5494;51.796;10.952;2024-02-26T09:03:44;97837.66;;;5.23;100.00
18988;BME280;5494;51.796;10.952;2024-02-26T09:06:15;97842.69;;;5.43;100.00
18988;BME280;5494;51.796;10.952;2024-02-26T09:08:43;97839.25;;;5.43;100.00
18988;BME280;5494;51.796;10.952;2024-02-26T09:11:11;97849.88;;;5.54;100.00
18988;BME280;5494;51.796;10.952;2024-02-26T09:13:40;97845.16;;;5.28;100.00
18988;BME280;5494;51.796;10.952;2024-02-26T09:16:08;97833.34;;;5.24;100.00
18988;BME280;5494;51.796;10.952;2024-02-26T09:18:38;97834.22;;;5.23;100.00
18988;BME280;5494;51.796;10.952;2024-02-26T09:21:06;97833.09;;;5.11;100.00
18988;BME280;5494;51.796;10.952;2024-02-26T09:23:35;97832.97;;;4.77;100.00
18988;BME280;5494;51.796;10.952;2024-02-26T09:26:05;97829.50;;;4.59;100.00
18988;BME280;5494;51.796;10.952;2024-02-26T09:28:33;97830.06;;;4.65;100.00
18988;BME280;5494;51.796;10.952;2024-02-26T09:31:04;97836.44;;;4.94;100.00
18988;BME280;5494;51.796;10.952;2024-02-26T09:33:33;97829.22;;;5.20;100.00
18988;BME280;5494;51.796;10.952;2024-02-26T09:36:03;97836.75;;;5.24;100.00
18988;BME280;5494;51.796;10.952;2024-02-26T09:38:33;97841.13;;;5.22;100.00
18988;BME280;5494;51.796;10.952;2024-02-26T09:41:18;97833.66;;;5.52;100.00
18988;BME280;5494;51.796;10.952;2024-02-26T09:43:48;97838.44;;;5.42;100.00
18988;BME280;5494;51.796;10.952;2024-02-26T09:46:19;97838.34;;;5.44;100.00
18988;BME280;5494;51.796;10.952;2024-02-26T09:48:47;97834.78;;;5.46;100.00
18988;BME280;5494;51.796;10.952;2024-02-26T09:51:18;97837.38;;;5.81;100.00
18988;BME280;5494;51.796;10.952;2024-02-26T09:53:51;97846.78;;;5.82;100.00
18988;BME280;5494;51.796;10.952;2024-02-26T09:56:20;97844.63;;;5.91;100.00
18988;BME280;5494;51.796;10.952;2024-02-26T09:58:52;97843.22;;;6.02;100.00
18988;BME280;5494;51.796;10.952;2024-02-26T10:01:22;97844.03;;;6.19;100.00
18988;BME280;5494;51.796;10.952;2024-02-26T10:03:55;97847.59;;;6.17;100.00
18988;BME280;5494;51.796;10.952;2024-02-26T10:06:27;97848.47;;;6.00;100.00
18988;BME280;5494;51.796;10.952;2024-02-26T10:08:56;97841.31;;;5.53;100.00
18988;BME280;5494;51.796;10.952;2024-02-26T10:11:26;97844.66;;;5.38;100.00
18988;BME280;5494;51.796;10.952;2024-02-26T10:13:55;97843.50;;;5.61;100.00
18988;BME280;5494;51.796;10.952;2024-02-26T10:16:25;97845.19;;;5.97;100.00
18988;BME280;5494;51.796;10.952;2024-02-26T10:18:53;97848.44;;;6.17;100.00
18988;BME280;5494;51.796;10.952;2024-02-26T10:21:27;97855.00;;;6.07;100.00
18988;BME280;5494;51.796;10.952;2024-02-26T10:23:55;97858.47;;;6.06;100.00
18988;BME280;5494;51.796;10.952;2024-02-26T10:26:23;97854.88;;;6.26;100.00
18988;BME280;5494;51.796;10.952;2024-02-26T10:28:52;97857.84;;;6.18;100.00
18988;BME280;5494;51.796;10.952;2024-02-26T10:31:21;97850.28;;;6.15;100.00
18988;BME280;5494;51.796;10.952;2024-02-26T10:33:50;97853.41;;;6.38;100.00
18988;BME280;5494;51.796;10.952;2024-02-26T10:36:18;97859.13;;;6.60;100.00
18988;BME280;5494;51.796;10.952;2024-02-26T10:38:49;97864.34;;;6.43;100.00
18988;BME280;5494;51.796;10.952;2024-02-26T10:41:23;97874.63;;;6.60;100.00
18988;BME280;5494;51.796;10.952;2024-02-26T10:43:50;97865.47;;;6.70;100.00
18988;BME280;5494;51.796;10.952;2024-02-26T10:46:19;97879.41;;;6.83;100.00
18988;BME280;5494;51.796;10.952;2024-02-26T10:48:50;97880.25;;;6.84;100.00
18988;BME280;5494;51.796;10.952;2024-02-26T10:51:26;97874.78;;;6.72;100.00
18988;BME280;5494;51.796;10.952;2024-02-26T10:53:57;97892.81;;;6.41;100.00
18988;BME280;5494;51.796;10.952;2024-02-26T10:56:29;97896.44;;;6.37;100.00
18988;BME280;5494;51.796;10.952;2024-02-26T10:58:58;97895.13;;;6.63;100.00
18988;BME280;5494;51.796;10.952;2024-02-26T11:01:27;97898.31;;;6.51;100.00
18988;BME280;5494;51.796;10.952;2024-02-26T11:04:00;97909.19;;;6.73;100.00
18988;BME280;5494;51.796;10.952;2024-02-26T11:06:28;97897.41;;;7.00;100.00
18988;BME280;5494;51.796;10.952;2024-02-26T11:09:00;97904.09;;;7.04;100.00
18988;BME280;5494;51.796;10.952;2024-02-26T11:11:30;97905.84;;;7.04;100.00
18988;BME280;5494;51.796;10.952;2024-02-26T11:14:03;97909.59;;;7.30;100.00
18988;BME280;5494;51.796;10.952;2024-02-26T11:16:32;97906.50;;;7.39;100.00
18988;BME280;5494;51.796;10.952;2024-02-26T11:19:03;97909.31;;;7.34;100.00
18988;BME280;5494;51.796;10.952;2024-02-26T11:21:31;97897.22;;;7.50;100.00
18988;BME280;5494;51.796;10.952;2024-02-26T11:24:09;97901.06;;;7.59;100.00
18988;BME280;5494;51.796;10.952;2024-02-26T11:26:51;97906.72;;;6.87;100.00
18988;BME280;5494;51.796;10.952;2024-02-26T11:32:13;97900.31;;;6.46;100.00
18988;BME280;5494;51.796;10.952;2024-02-26T11:34:42;97897.84;;;6.60;100.00
18988;BME280;5494;51.796;10.952;2024-02-26T11:37:11;97894.75;;;7.02;100.00
18988;BME280;5494;51.796;10.952;2024-02-26T11:39:42;97891.41;;;7.00;100.00
18988;BME280;5494;51.796;10.952;2024-02-26T11:42:16;97896.00;;;7.10;100.00
18988;BME280;5494;51.796;10.952;2024-02-26T11:44:45;97896.59;;;7.31;100.00
18988;BME280;5494;51.796;10.952;2024-02-26T11:47:17;97886.88;;;7.66;100.00
18988;BME280;5494;51.796;10.952;2024-02-26T11:49:47;97888.44;;;7.99;100.00
18988;BME280;5494;51.796;10.952;2024-02-26T11:52:16;97894.94;;;8.50;98.75
18988;BME280;5494;51.796;10.952;2024-02-26T11:54:48;97896.13;;;8.73;96.43
18988;BME280;5494;51.796;10.952;2024-02-26T11:57:24;97894.88;;;9.06;90.68
18988;BME280;5494;51.796;10.952;2024-02-26T11:59:54;97899.28;;;8.78;91.67
18988;BME280;5494;51.796;10.952;2024-02-26T12:02:45;97896.88;;;8.75;94.63
18988;BME280;5494;51.796;10.952;2024-02-26T12:05:16;97891.41;;;8.79;93.45
18988;BME280;5494;51.796;10.952;2024-02-26T12:07:46;97900.22;;;8.77;92.97
18988;BME280;5494;51.796;10.952;2024-02-26T12:10:27;97908.53;;;8.67;94.32
18988;BME280;5494;51.796;10.952;2024-02-26T12:13:00;97903.13;;;9.13;92.04
18988;BME280;5494;51.796;10.952;2024-02-26T12:15:33;97897.56;;;9.19;91.83
18988;BME280;5494;51.796;10.952;2024-02-26T12:18:04;97896.91;;;9.57;89.67
18988;BME280;5494;51.796;10.952;2024-02-26T12:20:32;97898.38;;;9.87;84.59
18988;BME280;5494;51.796;10.952;2024-02-26T12:23:02;97908.75;;;9.87;84.98
18988;BME280;5494;51.796;10.952;2024-02-26T12:25:33;97900.59;;;9.67;86.35
18988;BME280;5494;51.796;10.952;2024-02-26T12:28:01;97904.72;;;9.42;85.83
18988;BME280;5494;51.796;10.952;2024-02-26T12:30:31;97912.78;;;8.83;90.46
18988;BME280;5494;51.796;10.952;2024-02-26T12:33:01;97902.81;;;8.62;93.62
18988;BME280;5494;51.796;10.952;2024-02-26T12:35:30;97899.25;;;9.06;92.38
18988;BME280;5494;51.796;10.952;2024-02-26T12:37:59;97901.47;;;9.12;91.75
18988;BME280;5494;51.796;10.952;2024-02-26T12:40:28;97903.34;;;9.37;91.34
18988;BME280;5494;51.796;10.952;2024-02-26T12:42:58;97909.16;;;9.40;92.08
18988;BME280;5494;51.796;10.952;2024-02-26T12:45:26;97904.84;;;9.68;90.09
18988;BME280;5494;51.796;10.952;2024-02-26T12:47:55;97902.47;;;9.24;91.26
18988;BME280;5494;51.796;10.952;2024-02-26T12:50:24;97905.16;;;9.22;92.63
18988;BME280;5494;51.796;10.952;2024-02-26T12:52:53;97908.44;;;8.97;94.73
18988;BME280;5494;51.796;10.952;2024-02-26T12:55:22;97904.47;;;8.78;97.32
18988;BME280;5494;51.796;10.952;2024-02-26T12:57:51;97920.94;;;8.91;97.24
18988;BME280;5494;51.796;10.952;2024-02-26T13:00:25;97921.56;;;9.08;96.20
18988;BME280;5494;51.796;10.952;2024-02-26T13:02:56;97929.34;;;9.08;95.83
18988;BME280;5494;51.796;10.952;2024-02-26T13:05:24;97934.13;;;9.29;95.30
18988;BME280;5494;51.796;10.952;2024-02-26T13:07:53;97931.06;;;9.36;94.69
18988;BME280;5494;51.796;10.952;2024-02-26T13:10:21;97927.63;;;9.63;92.34
18988;BME280;5494;51.796;10.952;2024-02-26T13:12:50;97935.63;;;9.60;91.09
18988;BME280;5494;51.796;10.952;2024-02-26T13:15:20;97929.47;;;9.75;90.21